Terminal Aerodrome Forecast
Issued by NWS Mt. Holly, NJ

Home | Current Version | Previous Version | Text Only | Print | Product List | Glossary On
Versions: 1 2 3 4 5 6 7 8 9 10 11 12 13 14
197
FTUS41 KPHI 210521
TAFILG
TAF
KILG 210521Z 2106/2206 05007KT P6SM SKC
     FM211500 11007KT P6SM BKN250
     FM211700 16007KT P6SM BKN250=

USA.gov is the U.S. government's official web portal to all federal, state and local government web resources and services.